sensor_id;sensor_type;location;lat;lon;timestamp;temperature;humidity
2825;DHT22;1420;51.324;12.344;2023-03-14T00:00:52;10.40;99.90
2825;DHT22;1420;51.324;12.344;2023-03-14T00:03:19;10.40;99.90
2825;DHT22;1420;51.324;12.344;2023-03-14T00:05:46;10.40;99.90
2825;DHT22;1420;51.324;12.344;2023-03-14T00:08:13;10.40;99.90
2825;DHT22;1420;51.324;12.344;2023-03-14T00:10:41;10.30;99.90
2825;DHT22;1420;51.324;12.344;2023-03-14T00:13:08;10.40;99.90
2825;DHT22;1420;51.324;12.344;2023-03-14T00:15:36;10.40;99.90
2825;DHT22;1420;51.324;12.344;2023-03-14T00:18:03;10.30;99.90
2825;DHT22;1420;51.324;12.344;2023-03-14T00:20:30;10.40;99.90
2825;DHT22;1420;51.324;12.344;2023-03-14T00:22:57;10.30;99.90
2825;DHT22;1420;51.324;12.344;2023-03-14T00:25:25;10.30;99.90
2825;DHT22;1420;51.324;12.344;2023-03-14T00:27:53;10.30;99.90
2825;DHT22;1420;51.324;12.344;2023-03-14T00:30:21;10.30;99.90
2825;DHT22;1420;51.324;12.344;2023-03-14T00:32:48;10.20;99.90
2825;DHT22;1420;51.324;12.344;2023-03-14T00:35:16;10.20;99.90
2825;DHT22;1420;51.324;12.344;2023-03-14T00:37:43;10.20;99.90
2825;DHT22;1420;51.324;12.344;2023-03-14T00:40:11;10.20;99.90
2825;DHT22;1420;51.324;12.344;2023-03-14T00:42:38;10.20;99.90
2825;DHT22;1420;51.324;12.344;2023-03-14T00:45:07;10.20;99.90
2825;DHT22;1420;51.324;12.344;2023-03-14T00:47:35;10.20;99.90
2825;DHT22;1420;51.324;12.344;2023-03-14T00:50:02;10.20;99.90
2825;DHT22;1420;51.324;12.344;2023-03-14T00:52:29;10.20;99.90
2825;DHT22;1420;51.324;12.344;2023-03-14T00:54:56;10.20;99.90
2825;DHT22;1420;51.324;12.344;2023-03-14T00:57:24;10.20;99.90
2825;DHT22;1420;51.324;12.344;2023-03-14T00:59:51;10.20;99.90
2825;DHT22;1420;51.324;12.344;2023-03-14T01:02:18;10.20;99.90
2825;DHT22;1420;51.324;12.344;2023-03-14T01:04:47;10.30;99.90
2825;DHT22;1420;51.324;12.344;2023-03-14T01:07:13;10.30;99.90
2825;DHT22;1420;51.324;12.344;2023-03-14T01:09:40;10.40;99.90
2825;DHT22;1420;51.324;12.344;2023-03-14T01:12:08;10.40;99.90
2825;DHT22;1420;51.324;12.344;2023-03-14T01:14:35;10.50;99.90
2825;DHT22;1420;51.324;12.344;2023-03-14T01:17:02;10.50;99.90
2825;DHT22;1420;51.324;12.344;2023-03-14T01:19:30;10.50;99.90
2825;DHT22;1420;51.324;12.344;2023-03-14T01:21:57;10.70;99.90
2825;DHT22;1420;51.324;12.344;2023-03-14T01:24:25;10.70;99.90
2825;DHT22;1420;51.324;12.344;2023-03-14T01:26:52;10.60;99.90
2825;DHT22;1420;51.324;12.344;2023-03-14T01:29:19;10.70;99.90
2825;DHT22;1420;51.324;12.344;2023-03-14T01:31:46;10.60;99.90
2825;DHT22;1420;51.324;12.344;2023-03-14T01:34:15;10.70;99.90
2825;DHT22;1420;51.324;12.344;2023-03-14T01:36:43;10.80;99.90
2825;DHT22;1420;51.324;12.344;2023-03-14T01:39:10;10.70;99.90
2825;DHT22;1420;51.324;12.344;2023-03-14T01:41:37;10.70;99.90
2825;DHT22;1420;51.324;12.344;2023-03-14T01:44:04;10.70;99.90
2825;DHT22;1420;51.324;12.344;2023-03-14T01:46:43;10.70;99.90
2825;DHT22;1420;51.324;12.344;2023-03-14T01:49:29;10.80;99.90
2825;DHT22;1420;51.324;12.344;2023-03-14T01:51:59;10.80;99.90
2825;DHT22;1420;51.324;12.344;2023-03-14T01:54:28;10.80;99.90
2825;DHT22;1420;51.324;12.344;2023-03-14T01:57:00;10.70;99.90
2825;DHT22;1420;51.324;12.344;2023-03-14T01:59:25;10.70;99.90
2825;DHT22;1420;51.324;12.344;2023-03-14T02:01:53;10.60;99.90
2825;DHT22;1420;51.324;12.344;2023-03-14T02:04:20;10.50;99.90
2825;DHT22;1420;51.324;12.344;2023-03-14T02:07:01;10.50;99.90
2825;DHT22;1420;51.324;12.344;2023-03-14T02:09:27;10.60;99.90
2825;DHT22;1420;51.324;12.344;2023-03-14T02:11:55;10.50;99.90
2825;DHT22;1420;51.324;12.344;2023-03-14T02:14:27;10.50;99.90
2825;DHT22;1420;51.324;12.344;2023-03-14T02:16:52;10.50;99.90
2825;DHT22;1420;51.324;12.344;2023-03-14T02:19:20;10.40;99.90
2825;DHT22;1420;51.324;12.344;2023-03-14T02:22:19;10.50;99.90
2825;DHT22;1420;51.324;12.344;2023-03-14T02:24:35;10.50;99.90
2825;DHT22;1420;51.324;12.344;2023-03-14T02:27:09;10.60;99.90
2825;DHT22;1420;51.324;12.344;2023-03-14T02:29:37;10.50;99.90
2825;DHT22;1420;51.324;12.344;2023-03-14T02:32:03;10.60;99.90
2825;DHT22;1420;51.324;12.344;2023-03-14T02:34:31;10.50;99.90
2825;DHT22;1420;51.324;12.344;2023-03-14T02:36:59;10.50;99.90
2825;DHT22;1420;51.324;12.344;2023-03-14T02:39:29;10.50;99.90
2825;DHT22;1420;51.324;12.344;2023-03-14T02:41:55;10.50;99.90
2825;DHT22;1420;51.324;12.344;2023-03-14T02:44:22;10.50;99.90
2825;DHT22;1420;51.324;12.344;2023-03-14T02:46:50;10.50;99.90
2825;DHT22;1420;51.324;12.344;2023-03-14T02:49:19;10.60;99.90
2825;DHT22;1420;51.324;12.344;2023-03-14T02:51:46;10.60;99.90
2825;DHT22;1420;51.324;12.344;2023-03-14T02:54:14;10.50;99.90
2825;DHT22;1420;51.324;12.344;2023-03-14T02:56:40;10.50;99.90
2825;DHT22;1420;51.324;12.344;2023-03-14T02:59:07;10.50;99.90
2825;DHT22;1420;51.324;12.344;2023-03-14T03:01:35;10.50;99.90
2825;DHT22;1420;51.324;12.344;2023-03-14T03:04:02;10.50;99.90
2825;DHT22;1420;51.324;12.344;2023-03-14T03:06:29;10.50;99.90
2825;DHT22;1420;51.324;12.344;2023-03-14T03:08:57;10.60;99.90
2825;DHT22;1420;51.324;12.344;2023-03-14T03:11:24;10.50;99.90
2825;DHT22;1420;51.324;12.344;2023-03-14T03:13:52;10.50;99.90
2825;DHT22;1420;51.324;12.344;2023-03-14T03:16:19;10.60;99.90
2825;DHT22;1420;51.324;12.344;2023-03-14T03:18:46;10.60;99.90
2825;DHT22;1420;51.324;12.344;2023-03-14T03:21:13;10.50;99.90
2825;DHT22;1420;51.324;12.344;2023-03-14T03:23:41;10.60;99.90
2825;DHT22;1420;51.324;12.344;2023-03-14T03:26:09;10.60;99.90
2825;DHT22;1420;51.324;12.344;2023-03-14T03:28:36;10.60;99.90
2825;DHT22;1420;51.324;12.344;2023-03-14T03:31:07;10.60;99.90
2825;DHT22;1420;51.324;12.344;2023-03-14T03:33:33;10.60;99.90
2825;DHT22;1420;51.324;12.344;2023-03-14T03:36:00;10.70;99.90
2825;DHT22;1420;51.324;12.344;2023-03-14T03:38:28;10.80;99.90
2825;DHT22;1420;51.324;12.344;2023-03-14T03:40:55;10.70;99.90
2825;DHT22;1420;51.324;12.344;2023-03-14T03:43:22;10.70;99.90
2825;DHT22;1420;51.324;12.344;2023-03-14T03:45:50;10.80;99.90
2825;DHT22;1420;51.324;12.344;2023-03-14T03:48:18;10.80;99.90
2825;DHT22;1420;51.324;12.344;2023-03-14T03:50:45;10.70;99.90
2825;DHT22;1420;51.324;12.344;2023-03-14T03:53:12;10.80;99.90
2825;DHT22;1420;51.324;12.344;2023-03-14T03:55:41;10.70;99.90
2825;DHT22;1420;51.324;12.344;2023-03-14T03:58:07;10.70;99.90
2825;DHT22;1420;51.324;12.344;2023-03-14T04:00:35;10.70;99.90
2825;DHT22;1420;51.324;12.344;2023-03-14T04:03:02;10.60;99.90
2825;DHT22;1420;51.324;12.344;2023-03-14T04:05:29;10.60;99.90
2825;DHT22;1420;51.324;12.344;2023-03-14T04:07:56;10.60;99.90
2825;DHT22;1420;51.324;12.344;2023-03-14T04:10:23;10.70;99.90
2825;DHT22;1420;51.324;12.344;2023-03-14T04:12:51;10.50;99.90
2825;DHT22;1420;51.324;12.344;2023-03-14T04:15:18;10.50;99.90
2825;DHT22;1420;51.324;12.344;2023-03-14T04:17:45;10.50;99.90
2825;DHT22;1420;51.324;12.344;2023-03-14T04:20:12;10.50;99.90
2825;DHT22;1420;51.324;12.344;2023-03-14T04:22:40;10.50;99.90
2825;DHT22;1420;51.324;12.344;2023-03-14T04:25:08;10.40;99.90
2825;DHT22;1420;51.324;12.344;2023-03-14T04:27:35;10.40;99.90
2825;DHT22;1420;51.324;12.344;2023-03-14T04:30:03;10.40;99.90
2825;DHT22;1420;51.324;12.344;2023-03-14T04:32:30;10.50;99.90
2825;DHT22;1420;51.324;12.344;2023-03-14T04:34:58;10.50;99.90
2825;DHT22;1420;51.324;12.344;2023-03-14T04:37:25;10.40;99.90
2825;DHT22;1420;51.324;12.344;2023-03-14T04:39:53;10.50;99.90
2825;DHT22;1420;51.324;12.344;2023-03-14T04:42:20;10.40;99.90
2825;DHT22;1420;51.324;12.344;2023-03-14T04:44:47;10.40;99.90
2825;DHT22;1420;51.324;12.344;2023-03-14T04:47:15;10.40;99.90
2825;DHT22;1420;51.324;12.344;2023-03-14T04:49:42;10.30;99.90
2825;DHT22;1420;51.324;12.344;2023-03-14T04:52:10;10.30;99.90
2825;DHT22;1420;51.324;12.344;2023-03-14T04:54:37;10.30;99.90
2825;DHT22;1420;51.324;12.344;2023-03-14T04:57:04;10.40;99.90
2825;DHT22;1420;51.324;12.344;2023-03-14T04:59:32;10.30;99.90
2825;DHT22;1420;51.324;12.344;2023-03-14T05:01:59;10.30;99.90
2825;DHT22;1420;51.324;12.344;2023-03-14T05:04:27;10.30;99.90
2825;DHT22;1420;51.324;12.344;2023-03-14T05:06:54;10.30;99.90
2825;DHT22;1420;51.324;12.344;2023-03-14T05:09:21;10.30;99.90
2825;DHT22;1420;51.324;12.344;2023-03-14T05:11:48;10.30;99.90
2825;DHT22;1420;51.324;12.344;2023-03-14T05:14:15;10.30;99.90
2825;DHT22;1420;51.324;12.344;2023-03-14T05:16:43;10.30;99.90
2825;DHT22;1420;51.324;12.344;2023-03-14T05:19:11;10.20;99.90
2825;DHT22;1420;51.324;12.344;2023-03-14T05:21:38;10.40;99.90
2825;DHT22;1420;51.324;12.344;2023-03-14T05:24:05;10.50;99.90
2825;DHT22;1420;51.324;12.344;2023-03-14T05:26:32;10.50;99.90
2825;DHT22;1420;51.324;12.344;2023-03-14T05:29:00;10.60;99.90
2825;DHT22;1420;51.324;12.344;2023-03-14T05:31:27;10.60;99.90
2825;DHT22;1420;51.324;12.344;2023-03-14T05:33:54;10.70;99.90
2825;DHT22;1420;51.324;12.344;2023-03-14T05:36:22;10.70;99.90
2825;DHT22;1420;51.324;12.344;2023-03-14T05:38:49;10.70;99.90
2825;DHT22;1420;51.324;12.344;2023-03-14T05:41:16;10.70;99.90
2825;DHT22;1420;51.324;12.344;2023-03-14T05:43:44;10.50;99.90
2825;DHT22;1420;51.324;12.344;2023-03-14T05:46:12;10.40;99.90
2825;DHT22;1420;51.324;12.344;2023-03-14T05:48:39;10.40;99.90
2825;DHT22;1420;51.324;12.344;2023-03-14T05:51:06;10.40;99.90
2825;DHT22;1420;51.324;12.344;2023-03-14T05:53:33;10.40;99.90
2825;DHT22;1420;51.324;12.344;2023-03-14T05:56:01;10.50;99.90
2825;DHT22;1420;51.324;12.344;2023-03-14T05:58:28;10.40;99.90
2825;DHT22;1420;51.324;12.344;2023-03-14T06:00:55;10.40;99.90
2825;DHT22;1420;51.324;12.344;2023-03-14T06:03:22;10.30;99.90
2825;DHT22;1420;51.324;12.344;2023-03-14T06:05:50;10.50;99.90
2825;DHT22;1420;51.324;12.344;2023-03-14T06:08:17;10.50;99.90
2825;DHT22;1420;51.324;12.344;2023-03-14T06:10:44;10.60;99.90
2825;DHT22;1420;51.324;12.344;2023-03-14T06:13:11;10.70;99.90
2825;DHT22;1420;51.324;12.344;2023-03-14T06:15:39;10.60;99.90
2825;DHT22;1420;51.324;12.344;2023-03-14T06:18:07;10.70;99.90
2825;DHT22;1420;51.324;12.344;2023-03-14T06:20:36;10.60;99.90
2825;DHT22;1420;51.324;12.344;2023-03-14T06:23:03;10.60;99.90
2825;DHT22;1420;51.324;12.344;2023-03-14T06:25:31;10.60;99.90
2825;DHT22;1420;51.324;12.344;2023-03-14T06:27:57;10.60;99.90
2825;DHT22;1420;51.324;12.344;2023-03-14T06:30:25;10.70;99.90
2825;DHT22;1420;51.324;12.344;2023-03-14T06:32:52;10.70;99.90
2825;DHT22;1420;51.324;12.344;2023-03-14T06:35:20;10.90;99.90
2825;DHT22;1420;51.324;12.344;2023-03-14T06:37:48;10.80;99.90
2825;DHT22;1420;51.324;12.344;2023-03-14T06:40:15;10.70;99.90
2825;DHT22;1420;51.324;12.344;2023-03-14T06:42:43;10.70;99.90
2825;DHT22;1420;51.324;12.344;2023-03-14T06:45:10;10.80;99.90
2825;DHT22;1420;51.324;12.344;2023-03-14T06:47:38;10.80;99.90
2825;DHT22;1420;51.324;12.344;2023-03-14T06:50:06;10.80;99.90
2825;DHT22;1420;51.324;12.344;2023-03-14T06:52:33;10.90;99.90
2825;DHT22;1420;51.324;12.344;2023-03-14T06:55:00;10.90;99.90
2825;DHT22;1420;51.324;12.344;2023-03-14T06:57:28;11.00;99.90
2825;DHT22;1420;51.324;12.344;2023-03-14T06:59:55;11.00;99.90
2825;DHT22;1420;51.324;12.344;2023-03-14T07:02:23;11.00;99.90
2825;DHT22;1420;51.324;12.344;2023-03-14T07:04:49;11.10;99.90
2825;DHT22;1420;51.324;12.344;2023-03-14T07:07:17;11.20;99.90
2825;DHT22;1420;51.324;12.344;2023-03-14T07:09:45;11.20;99.90
2825;DHT22;1420;51.324;12.344;2023-03-14T07:12:13;11.20;99.90
2825;DHT22;1420;51.324;12.344;2023-03-14T07:14:41;11.40;99.90
2825;DHT22;1420;51.324;12.344;2023-03-14T07:17:08;11.40;99.90
2825;DHT22;1420;51.324;12.344;2023-03-14T07:19:35;11.40;99.90
2825;DHT22;1420;51.324;12.344;2023-03-14T07:22:03;11.50;99.90
2825;DHT22;1420;51.324;12.344;2023-03-14T07:24:30;11.60;99.90
2825;DHT22;1420;51.324;12.344;2023-03-14T07:26:58;11.50;99.90
2825;DHT22;1420;51.324;12.344;2023-03-14T07:29:25;11.60;99.90
2825;DHT22;1420;51.324;12.344;2023-03-14T07:31:52;11.70;99.90
2825;DHT22;1420;51.324;12.344;2023-03-14T07:34:19;11.70;99.90
2825;DHT22;1420;51.324;12.344;2023-03-14T07:36:47;12.00;99.90
2825;DHT22;1420;51.324;12.344;2023-03-14T07:39:14;12.00;99.90
2825;DHT22;1420;51.324;12.344;2023-03-14T07:41:41;12.00;99.90
2825;DHT22;1420;51.324;12.344;2023-03-14T07:44:09;12.00;99.90
2825;DHT22;1420;51.324;12.344;2023-03-14T07:46:36;11.90;99.90
2825;DHT22;1420;51.324;12.344;2023-03-14T07:49:04;12.30;99.90
2825;DHT22;1420;51.324;12.344;2023-03-14T07:51:31;12.40;99.90
2825;DHT22;1420;51.324;12.344;2023-03-14T07:54:00;12.30;99.90
2825;DHT22;1420;51.324;12.344;2023-03-14T07:56:27;12.70;99.90
2825;DHT22;1420;51.324;12.344;2023-03-14T07:58:56;13.00;99.90
2825;DHT22;1420;51.324;12.344;2023-03-14T08:01:23;12.80;99.90
2825;DHT22;1420;51.324;12.344;2023-03-14T08:03:51;12.80;99.90
2825;DHT22;1420;51.324;12.344;2023-03-14T08:06:18;12.80;99.90
2825;DHT22;1420;51.324;12.344;2023-03-14T08:08:45;12.70;99.90
2825;DHT22;1420;51.324;12.344;2023-03-14T08:11:12;12.80;99.90
2825;DHT22;1420;51.324;12.344;2023-03-14T08:13:39;12.80;99.90
2825;DHT22;1420;51.324;12.344;2023-03-14T08:16:08;12.80;99.90
2825;DHT22;1420;51.324;12.344;2023-03-14T08:18:35;12.70;99.90
2825;DHT22;1420;51.324;12.344;2023-03-14T08:21:02;13.40;99.90
2825;DHT22;1420;51.324;12.344;2023-03-14T08:23:30;13.80;99.90
2825;DHT22;1420;51.324;12.344;2023-03-14T08:25:58;13.50;99.90
2825;DHT22;1420;51.324;12.344;2023-03-14T08:28:26;13.20;99.90
2825;DHT22;1420;51.324;12.344;2023-03-14T08:30:54;13.20;99.90
2825;DHT22;1420;51.324;12.344;2023-03-14T08:33:21;13.40;99.90
2825;DHT22;1420;51.324;12.344;2023-03-14T08:35:51;13.10;99.90
2825;DHT22;1420;51.324;12.344;2023-03-14T08:38:16;13.00;99.90
2825;DHT22;1420;51.324;12.344;2023-03-14T08:40:43;13.20;99.90
2825;DHT22;1420;51.324;12.344;2023-03-14T08:43:10;13.10;99.90
2825;DHT22;1420;51.324;12.344;2023-03-14T08:45:37;13.20;99.90
2825;DHT22;1420;51.324;12.344;2023-03-14T08:48:05;13.50;99.90
2825;DHT22;1420;51.324;12.344;2023-03-14T08:50:34;13.40;99.90
2825;DHT22;1420;51.324;12.344;2023-03-14T08:53:02;13.40;99.90
2825;DHT22;1420;51.324;12.344;2023-03-14T08:55:30;13.60;99.90
2825;DHT22;1420;51.324;12.344;2023-03-14T08:57:57;13.60;99.90
2825;DHT22;1420;51.324;12.344;2023-03-14T09:00:24;13.60;99.90
2825;DHT22;1420;51.324;12.344;2023-03-14T09:02:51;13.50;99.90
2825;DHT22;1420;51.324;12.344;2023-03-14T09:05:19;13.40;99.90
2825;DHT22;1420;51.324;12.344;2023-03-14T09:07:47;13.40;99.90
2825;DHT22;1420;51.324;12.344;2023-03-14T09:10:15;13.40;99.90
2825;DHT22;1420;51.324;12.344;2023-03-14T09:12:42;13.30;99.90
2825;DHT22;1420;51.324;12.344;2023-03-14T09:15:09;13.30;99.90
2825;DHT22;1420;51.324;12.344;2023-03-14T09:17:37;13.30;99.90
2825;DHT22;1420;51.324;12.344;2023-03-14T09:20:04;13.40;99.90
2825;DHT22;1420;51.324;12.344;2023-03-14T09:22:33;13.50;99.90
2825;DHT22;1420;51.324;12.344;2023-03-14T09:25:00;13.60;99.90
2825;DHT22;1420;51.324;12.344;2023-03-14T09:27:27;13.50;99.90
2825;DHT22;1420;51.324;12.344;2023-03-14T09:29:54;13.30;99.90
2825;DHT22;1420;51.324;12.344;2023-03-14T09:32:22;13.40;99.90
2825;DHT22;1420;51.324;12.344;2023-03-14T09:34:50;13.50;99.90
2825;DHT22;1420;51.324;12.344;2023-03-14T09:37:18;13.50;99.90
2825;DHT22;1420;51.324;12.344;2023-03-14T09:39:46;13.50;99.90
2825;DHT22;1420;51.324;12.344;2023-03-14T09:42:16;13.50;99.90
2825;DHT22;1420;51.324;12.344;2023-03-14T09:44:48;13.50;99.90
2825;DHT22;1420;51.324;12.344;2023-03-14T09:47:11;13.50;99.90
2825;DHT22;1420;51.324;12.344;2023-03-14T09:49:39;13.50;99.90
2825;DHT22;1420;51.324;12.344;2023-03-14T09:52:06;13.50;99.90
2825;DHT22;1420;51.324;12.344;2023-03-14T09:54:43;13.50;99.90
2825;DHT22;1420;51.324;12.344;2023-03-14T09:57:13;13.50;99.90
2825;DHT22;1420;51.324;12.344;2023-03-14T09:59:39;13.50;99.90
2825;DHT22;1420;51.324;12.344;2023-03-14T10:02:21;13.40;99.90
2825;DHT22;1420;51.324;12.344;2023-03-14T10:04:48;13.50;99.90
2825;DHT22;1420;51.324;12.344;2023-03-14T10:07:16;13.50;99.90
2825;DHT22;1420;51.324;12.344;2023-03-14T10:09:43;13.40;99.90
2825;DHT22;1420;51.324;12.344;2023-03-14T10:12:10;13.40;99.90
2825;DHT22;1420;51.324;12.344;2023-03-14T10:14:37;13.60;99.90
2825;DHT22;1420;51.324;12.344;2023-03-14T10:17:06;13.70;99.90
2825;DHT22;1420;51.324;12.344;2023-03-14T10:19:33;13.50;99.90
2825;DHT22;1420;51.324;12.344;2023-03-14T10:22:02;13.40;99.90
2825;DHT22;1420;51.324;12.344;2023-03-14T10:24:30;13.40;99.90
2825;DHT22;1420;51.324;12.344;2023-03-14T10:26:59;13.40;99.90
2825;DHT22;1420;51.324;12.344;2023-03-14T10:29:26;13.50;99.90
2825;DHT22;1420;51.324;12.344;2023-03-14T10:32:04;13.50;99.90
2825;DHT22;1420;51.324;12.344;2023-03-14T10:34:34;13.40;99.90
2825;DHT22;1420;51.324;12.344;2023-03-14T10:36:58;13.60;99.90
2825;DHT22;1420;51.324;12.344;2023-03-14T10:39:35;13.90;99.90
2825;DHT22;1420;51.324;12.344;2023-03-14T10:42:03;13.80;99.90
2825;DHT22;1420;51.324;12.344;2023-03-14T10:44:29;14.00;99.90
2825;DHT22;1420;51.324;12.344;2023-03-14T10:46:58;14.10;99.90
2825;DHT22;1420;51.324;12.344;2023-03-14T10:49:28;14.00;99.90
2825;DHT22;1420;51.324;12.344;2023-03-14T10:51:53;13.90;99.90
2825;DHT22;1420;51.324;12.344;2023-03-14T10:54:21;13.80;99.90
2825;DHT22;1420;51.324;12.344;2023-03-14T10:56:58;14.00;99.90
2825;DHT22;1420;51.324;12.344;2023-03-14T10:59:27;14.10;99.90
2825;DHT22;1420;51.324;12.344;2023-03-14T11:01:55;14.00;99.90
2825;DHT22;1420;51.324;12.344;2023-03-14T11:04:35;14.00;99.90
2825;DHT22;1420;51.324;12.344;2023-03-14T11:06:59;13.80;99.90
2825;DHT22;1420;51.324;12.344;2023-03-14T11:12:23;13.60;99.90
2825;DHT22;1420;51.324;12.344;2023-03-14T11:14:46;13.50;99.90
2825;DHT22;1420;51.324;12.344;2023-03-14T11:17:20;13.50;99.90
2825;DHT22;1420;51.324;12.344;2023-03-14T11:19:53;13.50;99.90
2825;DHT22;1420;51.324;12.344;2023-03-14T11:22:21;13.60;99.90
2825;DHT22;1420;51.324;12.344;2023-03-14T11:25:02;13.50;99.90
2825;DHT22;1420;51.324;12.344;2023-03-14T11:27:35;13.70;99.90
2825;DHT22;1420;51.324;12.344;2023-03-14T11:32:46;14.00;99.90
2825;DHT22;1420;51.324;12.344;2023-03-14T11:35:33;14.10;99.90
2825;DHT22;1420;51.324;12.344;2023-03-14T11:38:09;14.10;99.90
2825;DHT22;1420;51.324;12.344;2023-03-14T11:40:30;14.10;99.90
2825;DHT22;1420;51.324;12.344;2023-03-14T11:43:08;14.30;99.90
2825;DHT22;1420;51.324;12.344;2023-03-14T11:45:30;14.30;99.90
2825;DHT22;1420;51.324;12.344;2023-03-14T11:50:43;14.70;99.90
2825;DHT22;1420;51.324;12.344;2023-03-14T11:53:11;14.70;99.90
2825;DHT22;1420;51.324;12.344;2023-03-14T11:55:37;14.90;99.90
2825;DHT22;1420;51.324;12.344;2023-03-14T11:58:23;14.60;99.90
2825;DHT22;1420;51.324;12.344;2023-03-14T12:00:48;14.70;99.90
2825;DHT22;1420;51.324;12.344;2023-03-14T12:03:24;14.80;99.90
2825;DHT22;1420;51.324;12.344;2023-03-14T12:08:39;14.20;99.90
2825;DHT22;1420;51.324;12.344;2023-03-14T12:11:12;14.20;99.90
2825;DHT22;1420;51.324;12.344;2023-03-14T12:13:39;14.30;99.90
2825;DHT22;1420;51.324;12.344;2023-03-14T12:16:43;14.40;99.90
2825;DHT22;1420;51.324;12.344;2023-03-14T12:18:53;14.40;99.90
2825;DHT22;1420;51.324;12.344;2023-03-14T12:21:20;14.20;99.90
2825;DHT22;1420;51.324;12.344;2023-03-14T12:23:50;14.20;99.90
2825;DHT22;1420;51.324;12.344;2023-03-14T12:26:18;14.20;99.90
2825;DHT22;1420;51.324;12.344;2023-03-14T12:29:09;14.00;99.90
2825;DHT22;1420;51.324;12.344;2023-03-14T12:31:37;13.70;99.90
2825;DHT22;1420;51.324;12.344;2023-03-14T12:34:26;13.30;99.90
2825;DHT22;1420;51.324;12.344;2023-03-14T12:36:53;13.20;99.90
2825;DHT22;1420;51.324;12.344;2023-03-14T12:42:04;13.70;99.90
2825;DHT22;1420;51.324;12.344;2023-03-14T12:44:47;13.90;99.90
2825;DHT22;1420;51.324;12.344;2023-03-14T12:47:52;14.00;99.90
2825;DHT22;1420;51.324;12.344;2023-03-14T12:50:07;14.00;99.90
2825;DHT22;1420;51.324;12.344;2023-03-14T12:55:36;14.30;99.90
2825;DHT22;1420;51.324;12.344;2023-03-14T12:58:10;14.10;99.90
2825;DHT22;1420;51.324;12.344;2023-03-14T13:00:35;14.20;99.90
2825;DHT22;1420;51.324;12.344;2023-03-14T13:05:51;14.20;99.90
2825;DHT22;1420;51.324;12.344;2023-03-14T13:08:32;14.10;99.90
2825;DHT22;1420;51.324;12.344;2023-03-14T13:10:47;14.20;99.90
2825;DHT22;1420;51.324;12.344;2023-03-14T13:13:16;14.10;99.90
2825;DHT22;1420;51.324;12.344;2023-03-14T13:15:43;14.10;99.90
2825;DHT22;1420;51.324;12.344;2023-03-14T13:18:23;14.20;99.90
2825;DHT22;1420;51.324;12.344;2023-03-14T13:20:51;14.50;99.90
2825;DHT22;1420;51.324;12.344;2023-03-14T13:23:20;14.70;99.90
2825;DHT22;1420;51.324;12.344;2023-03-14T13:25:47;14.60;99.90
2825;DHT22;1420;51.324;12.344;2023-03-14T13:28:14;14.60;99.90
2825;DHT22;1420;51.324;12.344;2023-03-14T13:30:44;14.50;99.90
2825;DHT22;1420;51.324;12.344;2023-03-14T13:33:12;14.60;99.90
2825;DHT22;1420;51.324;12.344;2023-03-14T13:35:43;14.40;99.90
2825;DHT22;1420;51.324;12.344;2023-03-14T13:38:16;14.60;99.90
2825;DHT22;1420;51.324;12.344;2023-03-14T13:40:43;14.60;99.90
2825;DHT22;1420;51.324;12.344;2023-03-14T13:43:14;14.80;99.90
2825;DHT22;1420;51.324;12.344;2023-03-14T13:45:47;14.90;99.90
2825;DHT22;1420;51.324;12.344;2023-03-14T13:48:12;14.80;99.90
2825;DHT22;1420;51.324;12.344;2023-03-14T13:50:39;14.90;99.90
2825;DHT22;1420;51.324;12.344;2023-03-14T13:53:09;14.90;99.90
2825;DHT22;1420;51.324;12.344;2023-03-14T13:55:33;14.90;99.90
2825;DHT22;1420;51.324;12.344;2023-03-14T13:58:00;15.00;99.90
2825;DHT22;1420;51.324;12.344;2023-03-14T14:00:28;14.90;99.90
2825;DHT22;1420;51.324;12.344;2023-03-14T14:02:56;14.90;99.90
2825;DHT22;1420;51.324;12.344;2023-03-14T14:05:23;14.90;99.90
2825;DHT22;1420;51.324;12.344;2023-03-14T14:07:50;14.80;99.90
2825;DHT22;1420;51.324;12.344;2023-03-14T14:10:17;15.00;99.90
2825;DHT22;1420;51.324;12.344;2023-03-14T14:12:55;15.00;99.90
2825;DHT22;1420;51.324;12.344;2023-03-14T14:15:26;15.00;99.90
2825;DHT22;1420;51.324;12.344;2023-03-14T14:17:53;14.70;99.90
2825;DHT22;1420;51.324;12.344;2023-03-14T14:20:26;14.50;99.90
2825;DHT22;1420;51.324;12.344;2023-03-14T14:22:51;14.50;99.90
2825;DHT22;1420;51.324;12.344;2023-03-14T14:25:18;14.50;99.90
2825;DHT22;1420;51.324;12.344;2023-03-14T14:27:48;14.70;99.90
2825;DHT22;1420;51.324;12.344;2023-03-14T14:30:29;14.60;99.90
2825;DHT22;1420;51.324;12.344;2023-03-14T14:33:06;14.50;99.90
2825;DHT22;1420;51.324;12.344;2023-03-14T14:35:25;14.60;99.90
2825;DHT22;1420;51.324;12.344;2023-03-14T14:37:51;14.50;99.90
2825;DHT22;1420;51.324;12.344;2023-03-14T14:40:20;14.40;99.90
2825;DHT22;1420;51.324;12.344;2023-03-14T14:42:46;14.50;99.90
2825;DHT22;1420;51.324;12.344;2023-03-14T14:45:18;14.30;99.90
2825;DHT22;1420;51.324;12.344;2023-03-14T14:47:50;14.30;99.90
2825;DHT22;1420;51.324;12.344;2023-03-14T14:50:26;14.30;99.90
2825;DHT22;1420;51.324;12.344;2023-03-14T14:52:48;14.20;99.90
2825;DHT22;1420;51.324;12.344;2023-03-14T14:55:18;14.00;99.90
2825;DHT22;1420;51.324;12.344;2023-03-14T14:57:50;14.00;99.90
2825;DHT22;1420;51.324;12.344;2023-03-14T15:00:20;13.80;99.90
2825;DHT22;1420;51.324;12.344;2023-03-14T15:02:46;13.40;99.90
2825;DHT22;1420;51.324;12.344;2023-03-14T15:05:17;13.10;99.90
2825;DHT22;1420;51.324;12.344;2023-03-14T15:07:43;12.80;99.90
2825;DHT22;1420;51.324;12.344;2023-03-14T15:10:15;12.30;99.90
2825;DHT22;1420;51.324;12.344;2023-03-14T15:12:40;12.20;99.90
2825;DHT22;1420;51.324;12.344;2023-03-14T15:15:08;12.20;99.90
2825;DHT22;1420;51.324;12.344;2023-03-14T15:17:36;9.30;99.90
2825;DHT22;1420;51.324;12.344;2023-03-14T15:20:03;9.20;99.90
2825;DHT22;1420;51.324;12.344;2023-03-14T15:22:31;8.00;99.90
2825;DHT22;1420;51.324;12.344;2023-03-14T15:24:59;6.50;99.90
2825;DHT22;1420;51.324;12.344;2023-03-14T15:27:30;6.40;99.90
2825;DHT22;1420;51.324;12.344;2023-03-14T15:29:59;6.30;99.90
2825;DHT22;1420;51.324;12.344;2023-03-14T15:32:27;6.50;99.90
2825;DHT22;1420;51.324;12.344;2023-03-14T15:34:55;6.40;99.90
2825;DHT22;1420;51.324;12.344;2023-03-14T15:37:22;6.50;99.90
2825;DHT22;1420;51.324;12.344;2023-03-14T15:39:49;6.30;99.90
2825;DHT22;1420;51.324;12.344;2023-03-14T15:42:16;6.30;99.90
2825;DHT22;1420;51.324;12.344;2023-03-14T15:44:44;6.20;99.90
2825;DHT22;1420;51.324;12.344;2023-03-14T15:47:12;6.10;99.90
2825;DHT22;1420;51.324;12.344;2023-03-14T15:49:39;5.90;99.90
2825;DHT22;1420;51.324;12.344;2023-03-14T15:52:06;6.00;99.90
2825;DHT22;1420;51.324;12.344;2023-03-14T15:54:34;5.80;99.90
2825;DHT22;1420;51.324;12.344;2023-03-14T15:57:02;5.80;99.90
2825;DHT22;1420;51.324;12.344;2023-03-14T15:59:29;5.70;99.90
2825;DHT22;1420;51.324;12.344;2023-03-14T16:01:56;5.60;99.90
2825;DHT22;1420;51.324;12.344;2023-03-14T16:04:23;5.40;99.90
2825;DHT22;1420;51.324;12.344;2023-03-14T16:06:51;5.30;99.90
2825;DHT22;1420;51.324;12.344;2023-03-14T16:09:19;5.40;99.90
2825;DHT22;1420;51.324;12.344;2023-03-14T16:11:46;5.40;99.90
2825;DHT22;1420;51.324;12.344;2023-03-14T16:14:16;5.00;99.90